sensor_id;sensor_type;location;lat;lon;timestamp;pressure;altitude;pressure_sealevel;temperature;humidity
23176;BME280;19910;42.652;23.332;2023-08-24T00:01:22;94699.56;;;21.94;71.48
23176;BME280;19910;42.652;23.332;2023-08-24T00:03:49;94701.16;;;21.99;71.32
23176;BME280;19910;42.652;23.332;2023-08-24T00:06:17;94709.81;;;21.97;70.45
23176;BME280;19910;42.652;23.332;2023-08-24T00:08:44;94701.94;;;21.92;71.81
23176;BME280;19910;42.652;23.332;2023-08-24T00:11:11;94711.00;;;21.89;71.29
23176;BME280;19910;42.652;23.332;2023-08-24T00:13:40;94705.50;;;21.82;71.51
23176;BME280;19910;42.652;23.332;2023-08-24T00:16:07;94700.38;;;21.77;71.86
23176;BME280;19910;42.652;23.332;2023-08-24T00:18:35;94705.19;;;21.41;72.95
23176;BME280;19910;42.652;23.332;2023-08-24T00:21:02;94703.56;;;21.47;72.28
23176;BME280;19910;42.652;23.332;2023-08-24T00:23:30;94703.59;;;21.44;72.61
23176;BME280;19910;42.652;23.332;2023-08-24T00:25:57;94694.94;;;21.56;73.29
23176;BME280;19910;42.652;23.332;2023-08-24T00:28:24;94694.16;;;21.41;73.62
23176;BME280;19910;42.652;23.332;2023-08-24T00:30:51;94698.09;;;21.40;73.71
23176;BME280;19910;42.652;23.332;2023-08-24T00:33:18;94691.78;;;21.36;73.12
23176;BME280;19910;42.652;23.332;2023-08-24T00:35:45;94687.47;;;21.28;73.15
23176;BME280;19910;42.652;23.332;2023-08-24T00:38:13;94683.13;;;21.31;72.82
23176;BME280;19910;42.652;23.332;2023-08-24T00:40:42;94690.22;;;21.32;73.14
23176;BME280;19910;42.652;23.332;2023-08-24T00:43:09;94691.00;;;21.39;73.16
23176;BME280;19910;42.652;23.332;2023-08-24T00:45:36;94693.34;;;21.34;73.05
23176;BME280;19910;42.652;23.332;2023-08-24T00:48:03;94700.81;;;20.98;74.71
23176;BME280;19910;42.652;23.332;2023-08-24T00:50:31;94703.13;;;20.78;75.23
23176;BME280;19910;42.652;23.332;2023-08-24T00:52:58;94705.13;;;20.88;74.71
23176;BME280;19910;42.652;23.332;2023-08-24T00:55:25;94700.38;;;20.92;74.48
23176;BME280;19910;42.652;23.332;2023-08-24T00:57:53;94701.19;;;21.00;74.76
23176;BME280;19910;42.652;23.332;2023-08-24T01:00:20;94707.50;;;21.14;74.18
23176;BME280;19910;42.652;23.332;2023-08-24T01:02:47;94706.72;;;21.10;74.58
23176;BME280;19910;42.652;23.332;2023-08-24T01:05:13;94702.78;;;21.04;74.59
23176;BME280;19910;42.652;23.332;2023-08-24T01:07:40;94703.16;;;21.06;75.54
23176;BME280;19910;42.652;23.332;2023-08-24T01:10:09;94692.56;;;21.01;75.92
23176;BME280;19910;42.652;23.332;2023-08-24T01:12:50;94693.31;;;20.94;75.57
23176;BME280;19910;42.652;23.332;2023-08-24T01:15:27;94702.78;;;20.90;75.70
23176;BME280;19910;42.652;23.332;2023-08-24T01:17:58;94702.34;;;20.81;76.28
23176;BME280;19910;42.652;23.332;2023-08-24T01:20:27;94700.00;;;20.83;76.72
23176;BME280;19910;42.652;23.332;2023-08-24T01:22:58;94695.66;;;20.82;77.13
23176;BME280;19910;42.652;23.332;2023-08-24T01:25:37;94691.72;;;20.83;76.49
23176;BME280;19910;42.652;23.332;2023-08-24T01:28:06;94692.53;;;20.83;76.88
23176;BME280;19910;42.652;23.332;2023-08-24T01:30:35;94693.31;;;20.91;76.76
23176;BME280;19910;42.652;23.332;2023-08-24T01:33:02;94695.69;;;20.89;76.48
23176;BME280;19910;42.652;23.332;2023-08-24T01:35:30;94693.31;;;20.84;76.77
23176;BME280;19910;42.652;23.332;2023-08-24T01:37:58;94701.94;;;20.79;76.96
23176;BME280;19910;42.652;23.332;2023-08-24T01:40:39;94713.34;;;20.81;77.39
23176;BME280;19910;42.652;23.332;2023-08-24T01:43:13;94705.50;;;20.76;77.11
23176;BME280;19910;42.652;23.332;2023-08-24T01:45:42;94703.53;;;20.73;77.19
23176;BME280;19910;42.652;23.332;2023-08-24T01:48:11;94708.25;;;20.83;76.72
23176;BME280;19910;42.652;23.332;2023-08-24T01:50:39;94708.25;;;20.83;76.46
23176;BME280;19910;42.652;23.332;2023-08-24T01:53:06;94709.03;;;20.80;76.38
23176;BME280;19910;42.652;23.332;2023-08-24T01:55:35;94701.16;;;20.75;76.78
23176;BME280;19910;42.652;23.332;2023-08-24T01:58:02;94698.41;;;20.75;76.95
23176;BME280;19910;42.652;23.332;2023-08-24T02:00:30;94698.00;;;20.80;76.59
23176;BME280;19910;42.652;23.332;2023-08-24T02:02:57;94694.88;;;20.64;76.56
23176;BME280;19910;42.652;23.332;2023-08-24T02:05:24;94697.63;;;20.64;76.58
23176;BME280;19910;42.652;23.332;2023-08-24T02:07:54;94693.59;;;20.36;77.69
23176;BME280;19910;42.652;23.332;2023-08-24T02:10:22;94699.47;;;20.38;77.84
23176;BME280;19910;42.652;23.332;2023-08-24T02:12:49;94697.81;;;20.23;78.49
23176;BME280;19910;42.652;23.332;2023-08-24T02:15:16;94706.41;;;20.11;79.66
23176;BME280;19910;42.652;23.332;2023-08-24T02:17:44;94707.19;;;20.04;80.82
23176;BME280;19910;42.652;23.332;2023-08-24T02:20:11;94714.69;;;20.11;80.34
23176;BME280;19910;42.652;23.332;2023-08-24T02:22:38;94713.53;;;20.15;80.09
23176;BME280;19910;42.652;23.332;2023-08-24T02:25:09;94714.34;;;20.23;79.14
23176;BME280;19910;42.652;23.332;2023-08-24T02:27:36;94715.94;;;20.31;77.92
23176;BME280;19910;42.652;23.332;2023-08-24T02:30:03;94718.38;;;20.36;78.05
23176;BME280;19910;42.652;23.332;2023-08-24T02:32:30;94720.31;;;20.39;78.62
23176;BME280;19910;42.652;23.332;2023-08-24T02:34:59;94721.50;;;20.38;78.72
23176;BME280;19910;42.652;23.332;2023-08-24T02:37:25;94717.94;;;20.34;79.81
23176;BME280;19910;42.652;23.332;2023-08-24T02:39:52;94726.16;;;20.27;80.33
23176;BME280;19910;42.652;23.332;2023-08-24T02:42:19;94717.50;;;20.21;80.59
23176;BME280;19910;42.652;23.332;2023-08-24T02:44:46;94698.63;;;20.27;80.41
23176;BME280;19910;42.652;23.332;2023-08-24T02:47:13;94704.13;;;20.20;80.83
23176;BME280;19910;42.652;23.332;2023-08-24T02:49:40;94704.06;;;20.09;81.92
23176;BME280;19910;42.652;23.332;2023-08-24T02:52:08;94697.38;;;20.10;82.22
23176;BME280;19910;42.652;23.332;2023-08-24T02:54:35;94696.91;;;19.91;82.97
23176;BME280;19910;42.652;23.332;2023-08-24T02:57:02;94688.22;;;19.81;83.55
23176;BME280;19910;42.652;23.332;2023-08-24T02:59:29;94685.63;;;20.17;82.23
23176;BME280;19910;42.652;23.332;2023-08-24T03:01:56;94674.28;;;20.22;82.11
23176;BME280;19910;42.652;23.332;2023-08-24T03:04:22;94679.72;;;20.08;82.63
23176;BME280;19910;42.652;23.332;2023-08-24T03:06:49;94682.81;;;19.99;82.17
23176;BME280;19910;42.652;23.332;2023-08-24T03:09:17;94686.72;;;19.95;82.72
23176;BME280;19910;42.652;23.332;2023-08-24T03:11:44;94694.53;;;19.85;83.58
23176;BME280;19910;42.652;23.332;2023-08-24T03:14:11;94705.09;;;19.76;84.60
23176;BME280;19910;42.652;23.332;2023-08-24T03:16:38;94704.63;;;19.64;85.76
23176;BME280;19910;42.652;23.332;2023-08-24T03:19:05;94711.97;;;19.49;86.92
23176;BME280;19910;42.652;23.332;2023-08-24T03:21:32;94724.03;;;19.41;87.88
23176;BME280;19910;42.652;23.332;2023-08-24T03:23:59;94728.75;;;19.37;87.69
23176;BME280;19910;42.652;23.332;2023-08-24T03:26:27;94722.75;;;19.28;87.88
23176;BME280;19910;42.652;23.332;2023-08-24T03:28:54;94727.13;;;19.32;87.41
23176;BME280;19910;42.652;23.332;2023-08-24T03:31:21;94729.16;;;19.42;87.22
23176;BME280;19910;42.652;23.332;2023-08-24T03:33:48;94742.91;;;19.42;87.28
23176;BME280;19910;42.652;23.332;2023-08-24T03:36:15;94747.63;;;19.45;86.67
23176;BME280;19910;42.652;23.332;2023-08-24T03:38:42;94751.66;;;19.51;86.62
23176;BME280;19910;42.652;23.332;2023-08-24T03:41:09;94750.06;;;19.50;86.41
23176;BME280;19910;42.652;23.332;2023-08-24T03:43:38;94751.66;;;19.55;86.83
23176;BME280;19910;42.652;23.332;2023-08-24T03:46:05;94747.81;;;19.63;86.31
23176;BME280;19910;42.652;23.332;2023-08-24T03:48:32;94759.56;;;19.60;86.10
23176;BME280;19910;42.652;23.332;2023-08-24T03:50:59;94761.97;;;19.65;84.93
23176;BME280;19910;42.652;23.332;2023-08-24T03:53:26;94757.25;;;19.69;84.98
23176;BME280;19910;42.652;23.332;2023-08-24T03:55:54;94760.81;;;19.73;83.80
23176;BME280;19910;42.652;23.332;2023-08-24T03:58:21;94756.19;;;19.81;83.88
23176;BME280;19910;42.652;23.332;2023-08-24T04:00:49;94756.66;;;19.94;83.42
23176;BME280;19910;42.652;23.332;2023-08-24T04:03:16;94748.84;;;20.03;83.03
23176;BME280;19910;42.652;23.332;2023-08-24T04:05:43;94748.81;;;19.99;84.04
23176;BME280;19910;42.652;23.332;2023-08-24T04:08:10;94755.94;;;20.11;82.46
23176;BME280;19910;42.652;23.332;2023-08-24T04:10:37;94748.84;;;20.10;83.78
23176;BME280;19910;42.652;23.332;2023-08-24T04:13:04;94743.41;;;20.17;83.77
23176;BME280;19910;42.652;23.332;2023-08-24T04:15:31;94761.50;;;20.25;83.17
23176;BME280;19910;42.652;23.332;2023-08-24T04:17:59;94754.06;;;20.22;83.14
23176;BME280;19910;42.652;23.332;2023-08-24T04:20:26;94745.88;;;20.36;82.31
23176;BME280;19910;42.652;23.332;2023-08-24T04:22:53;94745.91;;;20.43;82.27
23176;BME280;19910;42.652;23.332;2023-08-24T04:25:21;94741.19;;;20.44;81.62
23176;BME280;19910;42.652;23.332;2023-08-24T04:27:48;94731.38;;;20.46;81.83
23176;BME280;19910;42.652;23.332;2023-08-24T04:30:15;94735.75;;;20.62;79.61
23176;BME280;19910;42.652;23.332;2023-08-24T04:32:42;94733.41;;;20.78;78.60
23176;BME280;19910;42.652;23.332;2023-08-24T04:35:10;94743.63;;;20.70;79.50
23176;BME280;19910;42.652;23.332;2023-08-24T04:37:37;94753.00;;;20.51;80.50
23176;BME280;19910;42.652;23.332;2023-08-24T04:40:04;94753.75;;;20.41;81.24
23176;BME280;19910;42.652;23.332;2023-08-24T04:42:33;94752.91;;;20.30;82.44
23176;BME280;19910;42.652;23.332;2023-08-24T04:45:00;94747.34;;;20.23;82.57
23176;BME280;19910;42.652;23.332;2023-08-24T04:47:27;94753.00;;;20.51;81.75
23176;BME280;19910;42.652;23.332;2023-08-24T04:49:53;94753.91;;;20.84;80.45
23176;BME280;19910;42.652;23.332;2023-08-24T04:52:22;94749.63;;;21.04;79.33
23176;BME280;19910;42.652;23.332;2023-08-24T04:54:49;94755.56;;;21.24;78.86
23176;BME280;19910;42.652;23.332;2023-08-24T04:57:16;94752.81;;;21.42;78.77
23176;BME280;19910;42.652;23.332;2023-08-24T04:59:43;94761.06;;;21.49;78.49
23176;BME280;19910;42.652;23.332;2023-08-24T05:02:10;94762.66;;;21.57;78.78
23176;BME280;19910;42.652;23.332;2023-08-24T05:04:37;94752.41;;;21.61;78.68
23176;BME280;19910;42.652;23.332;2023-08-24T05:07:04;94751.63;;;21.71;77.67
23176;BME280;19910;42.652;23.332;2023-08-24T05:09:33;94756.38;;;21.56;78.06
23176;BME280;19910;42.652;23.332;2023-08-24T05:12:00;94754.75;;;21.80;76.80
23176;BME280;19910;42.652;23.332;2023-08-24T05:14:28;94746.84;;;21.89;76.24
23176;BME280;19910;42.652;23.332;2023-08-24T05:16:55;94755.91;;;21.93;76.30
23176;BME280;19910;42.652;23.332;2023-08-24T05:19:22;94753.22;;;21.69;77.00
23176;BME280;19910;42.652;23.332;2023-08-24T05:21:49;94765.03;;;21.69;77.55
23176;BME280;19910;42.652;23.332;2023-08-24T05:24:15;94764.25;;;21.58;78.53
23176;BME280;19910;42.652;23.332;2023-08-24T05:26:44;94765.03;;;21.69;78.32
23176;BME280;19910;42.652;23.332;2023-08-24T05:29:10;94772.50;;;21.72;78.32
23176;BME280;19910;42.652;23.332;2023-08-24T05:31:37;94767.38;;;21.81;77.39
23176;BME280;19910;42.652;23.332;2023-08-24T05:34:04;94770.94;;;21.85;78.17
23176;BME280;19910;42.652;23.332;2023-08-24T05:36:33;94769.75;;;21.72;79.72
23176;BME280;19910;42.652;23.332;2023-08-24T05:38:59;94774.47;;;21.75;79.57
23176;BME280;19910;42.652;23.332;2023-08-24T05:41:26;94778.38;;;22.03;78.45
23176;BME280;19910;42.652;23.332;2023-08-24T05:43:54;94774.41;;;22.18;76.90
23176;BME280;19910;42.652;23.332;2023-08-24T05:46:22;94767.97;;;22.63;75.40
23176;BME280;19910;42.652;23.332;2023-08-24T05:48:49;94782.97;;;22.55;75.60
23176;BME280;19910;42.652;23.332;2023-08-24T05:51:16;94783.25;;;22.93;74.54
23176;BME280;19910;42.652;23.332;2023-08-24T05:53:43;94781.50;;;23.20;73.13
23176;BME280;19910;42.652;23.332;2023-08-24T05:56:10;94779.34;;;23.49;72.10
23176;BME280;19910;42.652;23.332;2023-08-24T05:58:37;94782.25;;;23.80;70.26
23176;BME280;19910;42.652;23.332;2023-08-24T06:01:05;94784.91;;;24.35;67.40
23176;BME280;19910;42.652;23.332;2023-08-24T06:03:33;94779.50;;;24.92;65.94
23176;BME280;19910;42.652;23.332;2023-08-24T06:06:01;94779.56;;;25.96;62.82
23176;BME280;19910;42.652;23.332;2023-08-24T06:08:28;94772.50;;;27.86;57.77
23176;BME280;19910;42.652;23.332;2023-08-24T06:10:56;94764.44;;;29.61;52.35
23176;BME280;19910;42.652;23.332;2023-08-24T06:13:23;94765.28;;;30.56;48.54
23176;BME280;19910;42.652;23.332;2023-08-24T06:15:50;94765.28;;;31.22;46.22
23176;BME280;19910;42.652;23.332;2023-08-24T06:18:18;94776.47;;;30.78;47.34
23176;BME280;19910;42.652;23.332;2023-08-24T06:20:45;94777.16;;;29.88;49.12
23176;BME280;19910;42.652;23.332;2023-08-24T06:23:18;94775.72;;;29.58;49.89
23176;BME280;19910;42.652;23.332;2023-08-24T06:25:45;94779.44;;;29.13;50.53
23176;BME280;19910;42.652;23.332;2023-08-24T06:28:12;94774.47;;;29.97;50.00
23176;BME280;19910;42.652;23.332;2023-08-24T06:30:42;94774.97;;;30.64;46.92
23176;BME280;19910;42.652;23.332;2023-08-24T06:33:10;94770.34;;;30.01;47.76
23176;BME280;19910;42.652;23.332;2023-08-24T06:35:40;94777.38;;;30.06;48.13
23176;BME280;19910;42.652;23.332;2023-08-24T06:38:07;94779.59;;;30.80;46.56
23176;BME280;19910;42.652;23.332;2023-08-24T06:40:34;94773.47;;;32.18;43.70
23176;BME280;19910;42.652;23.332;2023-08-24T06:43:04;94766.69;;;33.01;42.63
23176;BME280;19910;42.652;23.332;2023-08-24T06:45:31;94772.44;;;31.85;44.05
23176;BME280;19910;42.652;23.332;2023-08-24T06:47:58;94773.28;;;32.03;44.29
23176;BME280;19910;42.652;23.332;2023-08-24T06:50:30;94767.63;;;32.62;43.00
23176;BME280;19910;42.652;23.332;2023-08-24T06:52:58;94770.69;;;32.27;42.33
23176;BME280;19910;42.652;23.332;2023-08-24T06:55:25;94779.16;;;32.45;42.18
23176;BME280;19910;42.652;23.332;2023-08-24T06:57:55;94767.59;;;32.25;42.35
23176;BME280;19910;42.652;23.332;2023-08-24T07:00:23;94772.47;;;32.89;41.55
23176;BME280;19910;42.652;23.332;2023-08-24T07:02:51;94766.41;;;32.90;39.74
23176;BME280;19910;42.652;23.332;2023-08-24T07:05:18;94764.81;;;32.98;40.59
23176;BME280;19910;42.652;23.332;2023-08-24T07:07:45;94759.53;;;34.50;38.09
23176;BME280;19910;42.652;23.332;2023-08-24T07:10:14;94762.94;;;36.11;34.84
23176;BME280;19910;42.652;23.332;2023-08-24T07:12:40;94755.97;;;36.61;34.38
23176;BME280;19910;42.652;23.332;2023-08-24T07:15:10;94758.34;;;35.93;35.53
23176;BME280;19910;42.652;23.332;2023-08-24T07:17:52;94761.84;;;35.88;35.13
23176;BME280;19910;42.652;23.332;2023-08-24T07:20:26;94764.94;;;34.39;37.38
23176;BME280;19910;42.652;23.332;2023-08-24T07:22:52;94759.16;;;33.35;38.63
23176;BME280;19910;42.652;23.332;2023-08-24T07:25:21;94762.00;;;32.43;40.62
23176;BME280;19910;42.652;23.332;2023-08-24T07:27:48;94754.97;;;31.71;41.99
23176;BME280;19910;42.652;23.332;2023-08-24T07:30:15;94765.66;;;31.33;42.81
23176;BME280;19910;42.652;23.332;2023-08-24T07:32:42;94758.13;;;30.77;44.27
23176;BME280;19910;42.652;23.332;2023-08-24T07:35:09;94763.53;;;29.39;46.87
23176;BME280;19910;42.652;23.332;2023-08-24T07:37:35;94774.06;;;28.93;48.73
23176;BME280;19910;42.652;23.332;2023-08-24T07:40:03;94783.25;;;28.33;51.22
23176;BME280;19910;42.652;23.332;2023-08-24T07:42:42;94761.09;;;28.99;50.23
23176;BME280;19910;42.652;23.332;2023-08-24T07:45:10;94769.00;;;28.88;50.13
23176;BME280;19910;42.652;23.332;2023-08-24T07:47:37;94760.38;;;29.37;48.54
23176;BME280;19910;42.652;23.332;2023-08-24T07:50:05;94762.59;;;30.18;46.00
23176;BME280;19910;42.652;23.332;2023-08-24T07:52:32;94756.38;;;30.70;45.26
23176;BME280;19910;42.652;23.332;2023-08-24T07:55:01;94757.03;;;31.18;44.67
23176;BME280;19910;42.652;23.332;2023-08-24T07:57:29;94759.84;;;30.06;46.30
23176;BME280;19910;42.652;23.332;2023-08-24T07:59:58;94747.88;;;30.74;45.73
23176;BME280;19910;42.652;23.332;2023-08-24T08:02:25;94756.03;;;31.34;45.04
23176;BME280;19910;42.652;23.332;2023-08-24T08:04:56;94746.69;;;31.28;44.16
23176;BME280;19910;42.652;23.332;2023-08-24T08:07:23;94762.44;;;31.13;44.04
23176;BME280;19910;42.652;23.332;2023-08-24T08:09:53;94747.88;;;31.58;42.99
23176;BME280;19910;42.652;23.332;2023-08-24T08:12:20;94756.66;;;30.85;44.87
23176;BME280;19910;42.652;23.332;2023-08-24T08:14:47;94753.50;;;31.05;43.72
23176;BME280;19910;42.652;23.332;2023-08-24T08:17:15;94754.00;;;31.65;42.93
23176;BME280;19910;42.652;23.332;2023-08-24T08:19:42;94763.53;;;32.26;41.55
23176;BME280;19910;42.652;23.332;2023-08-24T08:22:09;94753.66;;;32.12;41.51
23176;BME280;19910;42.652;23.332;2023-08-24T08:24:35;94755.31;;;32.50;40.60
23176;BME280;19910;42.652;23.332;2023-08-24T08:27:02;94756.72;;;32.91;39.96
23176;BME280;19910;42.652;23.332;2023-08-24T08:29:29;94755.81;;;32.76;39.64
23176;BME280;19910;42.652;23.332;2023-08-24T08:31:56;94741.31;;;32.77;40.05
23176;BME280;19910;42.652;23.332;2023-08-24T08:34:24;94739.53;;;32.98;38.77
23176;BME280;19910;42.652;23.332;2023-08-24T08:36:51;94734.75;;;33.50;38.35
23176;BME280;19910;42.652;23.332;2023-08-24T08:39:18;94746.06;;;33.32;38.10
23176;BME280;19910;42.652;23.332;2023-08-24T08:41:45;94732.38;;;32.97;39.21
23176;BME280;19910;42.652;23.332;2023-08-24T08:44:14;94733.28;;;33.12;37.97
23176;BME280;19910;42.652;23.332;2023-08-24T08:46:42;94732.91;;;33.38;37.98
23176;BME280;19910;42.652;23.332;2023-08-24T08:49:11;94728.66;;;32.73;39.10
23176;BME280;19910;42.652;23.332;2023-08-24T08:51:42;94726.09;;;33.30;38.45
23176;BME280;19910;42.652;23.332;2023-08-24T08:54:09;94721.63;;;32.87;38.20
23176;BME280;19910;42.652;23.332;2023-08-24T08:56:36;94716.78;;;33.05;38.06
23176;BME280;19910;42.652;23.332;2023-08-24T08:59:07;94722.09;;;32.39;39.06
23176;BME280;19910;42.652;23.332;2023-08-24T09:01:37;94714.44;;;32.95;38.32
23176;BME280;19910;42.652;23.332;2023-08-24T09:04:05;94703.72;;;33.44;38.03
23176;BME280;19910;42.652;23.332;2023-08-24T09:06:33;94698.00;;;33.96;36.83
23176;BME280;19910;42.652;23.332;2023-08-24T09:09:02;94692.19;;;34.47;36.88
23176;BME280;19910;42.652;23.332;2023-08-24T09:11:29;94701.53;;;33.81;37.35
23176;BME280;19910;42.652;23.332;2023-08-24T09:13:55;94697.19;;;32.78;38.89
23176;BME280;19910;42.652;23.332;2023-08-24T09:16:22;94691.25;;;32.76;39.08
23176;BME280;19910;42.652;23.332;2023-08-24T09:18:49;94695.91;;;32.70;38.92
23176;BME280;19910;42.652;23.332;2023-08-24T09:21:16;94689.19;;;32.86;38.35
23176;BME280;19910;42.652;23.332;2023-08-24T09:23:44;94691.19;;;32.94;39.14
23176;BME280;19910;42.652;23.332;2023-08-24T09:26:12;94679.41;;;33.23;37.94
23176;BME280;19910;42.652;23.332;2023-08-24T09:28:42;94679.53;;;33.47;38.10
23176;BME280;19910;42.652;23.332;2023-08-24T09:31:11;94660.13;;;33.49;38.37
23176;BME280;19910;42.652;23.332;2023-08-24T09:33:39;94663.59;;;33.44;38.06
23176;BME280;19910;42.652;23.332;2023-08-24T09:36:10;94664.09;;;33.66;37.18
23176;BME280;19910;42.652;23.332;2023-08-24T09:38:46;94656.59;;;34.20;36.44
23176;BME280;19910;42.652;23.332;2023-08-24T09:41:15;94653.34;;;34.36;36.03
23176;BME280;19910;42.652;23.332;2023-08-24T09:43:42;94651.44;;;34.42;36.20
23176;BME280;19910;42.652;23.332;2023-08-24T09:46:09;94645.22;;;34.38;35.68
23176;BME280;19910;42.652;23.332;2023-08-24T09:48:36;94650.50;;;34.75;35.64
23176;BME280;19910;42.652;23.332;2023-08-24T09:51:04;94653.03;;;35.02;35.12
23176;BME280;19910;42.652;23.332;2023-08-24T09:53:33;94649.56;;;34.78;35.12
23176;BME280;19910;42.652;23.332;2023-08-24T09:56:04;94638.91;;;34.29;35.78
23176;BME280;19910;42.652;23.332;2023-08-24T09:58:34;94647.03;;;34.27;35.95
23176;BME280;19910;42.652;23.332;2023-08-24T10:01:01;94633.13;;;34.23;35.67
23176;BME280;19910;42.652;23.332;2023-08-24T10:03:32;94634.16;;;34.49;35.21
23176;BME280;19910;42.652;23.332;2023-08-24T10:05:59;94629.75;;;33.95;36.10
23176;BME280;19910;42.652;23.332;2023-08-24T10:08:28;94625.72;;;34.49;36.07
23176;BME280;19910;42.652;23.332;2023-08-24T10:10:56;94623.31;;;34.72;34.83
23176;BME280;19910;42.652;23.332;2023-08-24T10:13:31;94629.66;;;34.96;34.96
23176;BME280;19910;42.652;23.332;2023-08-24T10:16:05;94622.91;;;35.73;33.35
23176;BME280;19910;42.652;23.332;2023-08-24T10:18:33;94617.09;;;36.17;32.46
23176;BME280;19910;42.652;23.332;2023-08-24T10:21:00;94616.75;;;35.74;33.60
23176;BME280;19910;42.652;23.332;2023-08-24T10:23:29;94622.97;;;34.79;34.65
23176;BME280;19910;42.652;23.332;2023-08-24T10:25:56;94626.72;;;34.76;34.45
23176;BME280;19910;42.652;23.332;2023-08-24T10:28:24;94619.47;;;34.84;33.86
23176;BME280;19910;42.652;23.332;2023-08-24T10:30:51;94616.72;;;35.04;33.05
23176;BME280;19910;42.652;23.332;2023-08-24T10:33:21;94621.88;;;34.23;33.17
23176;BME280;19910;42.652;23.332;2023-08-24T10:35:49;94605.66;;;34.56;33.55
23176;BME280;19910;42.652;23.332;2023-08-24T10:38:25;94609.72;;;34.41;33.97
23176;BME280;19910;42.652;23.332;2023-08-24T10:40:53;94602.94;;;34.09;34.56
23176;BME280;19910;42.652;23.332;2023-08-24T10:43:22;94608.63;;;34.00;34.24
23176;BME280;19910;42.652;23.332;2023-08-24T10:45:55;94610.81;;;34.19;34.31
23176;BME280;19910;42.652;23.332;2023-08-24T10:48:25;94614.38;;;33.81;34.34
23176;BME280;19910;42.652;23.332;2023-08-24T10:51:18;94611.28;;;33.13;35.56
23176;BME280;19910;42.652;23.332;2023-08-24T10:53:47;94613.56;;;32.82;36.06
23176;BME280;19910;42.652;23.332;2023-08-24T10:56:15;94605.81;;;32.77;35.78
23176;BME280;19910;42.652;23.332;2023-08-24T10:58:42;94605.81;;;32.77;35.92
23176;BME280;19910;42.652;23.332;2023-08-24T11:01:19;94603.84;;;33.01;36.01
23176;BME280;19910;42.652;23.332;2023-08-24T11:03:55;94611.91;;;32.66;36.80
23176;BME280;19910;42.652;23.332;2023-08-24T11:06:23;94593.25;;;32.18;38.49
23176;BME280;19910;42.652;23.332;2023-08-24T11:09:06;94604.69;;;31.47;40.21
23176;BME280;19910;42.652;23.332;2023-08-24T11:11:39;94606.91;;;30.06;43.37
23176;BME280;19910;42.652;23.332;2023-08-24T11:14:15;94608.66;;;30.13;44.36
23176;BME280;19910;42.652;23.332;2023-08-24T11:16:45;94595.00;;;30.36;44.32
23176;BME280;19910;42.652;23.332;2023-08-24T11:19:15;94600.22;;;30.47;44.26
23176;BME280;19910;42.652;23.332;2023-08-24T11:21:43;94592.00;;;30.53;44.30
23176;BME280;19910;42.652;23.332;2023-08-24T11:24:12;94591.50;;;30.45;44.52
23176;BME280;19910;42.652;23.332;2023-08-24T11:26:41;94586.69;;;30.46;45.36
23176;BME280;19910;42.652;23.332;2023-08-24T11:29:08;94589.19;;;30.53;44.53
23176;BME280;19910;42.652;23.332;2023-08-24T11:31:35;94600.75;;;30.55;44.59
23176;BME280;19910;42.652;23.332;2023-08-24T11:34:02;94602.03;;;30.41;45.19
23176;BME280;19910;42.652;23.332;2023-08-24T11:36:31;94608.66;;;30.13;45.37
23176;BME280;19910;42.652;23.332;2023-08-24T11:38:59;94604.91;;;30.07;45.05
23176;BME280;19910;42.652;23.332;2023-08-24T11:41:26;94611.50;;;30.00;45.28
23176;BME280;19910;42.652;23.332;2023-08-24T11:44:00;94602.03;;;30.19;45.31
23176;BME280;19910;42.652;23.332;2023-08-24T11:46:28;94612.50;;;29.72;45.91
23176;BME280;19910;42.652;23.332;2023-08-24T11:48:57;94612.34;;;29.41;46.60
23176;BME280;19910;42.652;23.332;2023-08-24T11:51:24;94613.00;;;29.32;47.73
23176;BME280;19910;42.652;23.332;2023-08-24T11:53:53;94615.25;;;29.37;47.44
23176;BME280;19910;42.652;23.332;2023-08-24T11:56:20;94610.59;;;29.68;47.03
23176;BME280;19910;42.652;23.332;2023-08-24T11:58:49;94602.47;;;29.61;47.20
23176;BME280;19910;42.652;23.332;2023-08-24T12:01:17;94607.03;;;29.68;47.57
23176;BME280;19910;42.652;23.332;2023-08-24T12:03:44;94598.91;;;29.83;47.67
23176;BME280;19910;42.652;23.332;2023-08-24T12:06:21;94593.00;;;29.81;47.20
23176;BME280;19910;42.652;23.332;2023-08-24T12:08:54;94586.78;;;29.77;46.90
23176;BME280;19910;42.652;23.332;2023-08-24T12:11:21;94586.06;;;29.63;47.02
23176;BME280;19910;42.652;23.332;2023-08-24T12:13:51;94574.19;;;29.94;45.95
23176;BME280;19910;42.652;23.332;2023-08-24T12:16:21;94570.16;;;29.95;45.84
23176;BME280;19910;42.652;23.332;2023-08-24T12:18:51;94574.47;;;29.40;46.23
23176;BME280;19910;42.652;23.332;2023-08-24T12:21:19;94568.91;;;29.40;46.27
23176;BME280;19910;42.652;23.332;2023-08-24T12:23:57;94575.06;;;29.69;45.10
23176;BME280;19910;42.652;23.332;2023-08-24T12:26:24;94581.94;;;29.55;44.28
23176;BME280;19910;42.652;23.332;2023-08-24T12:28:51;94580.19;;;29.36;46.11
23176;BME280;19910;42.652;23.332;2023-08-24T12:31:18;94579.09;;;29.21;45.19
23176;BME280;19910;42.652;23.332;2023-08-24T12:33:46;94590.13;;;29.37;46.04
23176;BME280;19910;42.652;23.332;2023-08-24T12:36:23;94592.22;;;29.80;45.22
23176;BME280;19910;42.652;23.332;2023-08-24T12:38:50;94588.88;;;30.07;44.89
23176;BME280;19910;42.652;23.332;2023-08-24T12:41:18;94584.22;;;30.48;44.00
23176;BME280;19910;42.652;23.332;2023-08-24T12:43:45;94580.03;;;30.74;42.52
23176;BME280;19910;42.652;23.332;2023-08-24T12:46:38;94578.16;;;30.80;41.30
23176;BME280;19910;42.652;23.332;2023-08-24T12:49:05;94574.28;;;31.18;41.01
23176;BME280;19910;42.652;23.332;2023-08-24T12:51:36;94588.78;;;31.34;40.63
23176;BME280;19910;42.652;23.332;2023-08-24T12:54:04;94582.59;;;31.58;40.61
23176;BME280;19910;42.652;23.332;2023-08-24T12:56:33;94581.09;;;31.66;40.44